Time;durP1;ratioP1;P1;durP2;ratioP2;P2;SDS_P1;SDS_P2;PMS_P1;PMS_P2;Temp;Humidity;BMP_temperature;BMP_pressure;BME280_temperature;BME280_humidity;BME280_pressure;Samples;Min_cycle;Max_cycle;Signal;HPM_P1;HPM_P2
2022/11/14 00:00:00;;;;;;;;;;;;;;;2.14;100.00;101610.16;1441919;89;20817;-85
2022/11/14 00:02:27;;;;;;;;;;;;;;;2.17;100.00;101610.03;1462396;89;20341;-83
2022/11/14 00:04:53;;;;;;;;;;;;;;;2.21;100.00;101611.58;1456380;89;20393;-86
2022/11/14 00:07:18;;;;;;;;;;;;;;;2.25;100.00;101613.63;1447606;89;20311;-85
2022/11/14 00:09:44;;;;;;;;;;;;;;;2.18;100.00;101611.72;1426630;89;20868;-83
2022/11/14 00:12:11;;;;;;;;;;;;;;;2.15;100.00;101613.15;1453570;89;20642;-86
2022/11/14 00:14:38;;;;;;;;;;;;;;;2.14;100.00;101606.24;1458746;89;20369;-84
2022/11/14 00:17:04;;;;;;;;;;;;;;;2.12;100.00;101603.30;1463009;89;20993;-83
2022/11/14 00:19:30;;;;;;;;;;;;;;;2.07;100.00;101604.78;1448315;88;20857;-84
2022/11/14 00:21:56;;;;;;;;;;;;;;;2.04;100.00;101603.61;1459587;89;20347;-82
2022/11/14 00:24:22;;;;;;;;;;;;;;;2.07;100.00;101600.02;1454631;89;20444;-83
2022/11/14 00:26:48;;;;;;;;;;;;;;;2.07;100.00;101595.64;1456367;89;20347;-83
2022/11/14 00:29:14;;;;;;;;;;;;;;;2.08;100.00;101605.20;1465662;88;20312;-83
2022/11/14 00:31:40;;;;;;;;;;;;;;;2.10;100.00;101599.47;1476658;88;20893;-83
2022/11/14 00:34:07;;;;;;;;;;;;;;;2.15;100.00;101592.25;1459863;88;20327;-82
2022/11/14 00:36:33;;;;;;;;;;;;;;;2.17;100.00;101603.50;1477873;88;20812;-82
2022/11/14 00:38:59;;;;;;;;;;;;;;;2.20;100.00;101607.75;1487642;88;20290;-82
2022/11/14 00:41:25;;;;;;;;;;;;;;;2.24;100.00;101606.26;1472836;88;20283;-83
2022/11/14 00:43:51;;;;;;;;;;;;;;;2.31;100.00;101600.30;1470448;88;20290;-82
2022/11/14 00:46:17;;;;;;;;;;;;;;;2.25;100.00;101605.33;1467307;88;20293;-82
2022/11/14 00:48:43;;;;;;;;;;;;;;;2.20;100.00;101602.06;1442958;90;20763;-83
2022/11/14 00:51:09;;;;;;;;;;;;;;;2.18;100.00;101610.41;1443929;90;20456;-84
2022/11/14 00:53:34;;;;;;;;;;;;;;;2.14;100.00;101607.55;1452069;88;20987;-84
2022/11/14 00:56:01;;;;;;;;;;;;;;;2.05;100.00;101614.47;1462269;88;20548;-85
2022/11/14 00:58:27;;;;;;;;;;;;;;;2.00;100.00;101614.64;1456773;89;21140;-83
2022/11/14 01:00:53;;;;;;;;;;;;;;;1.94;100.00;101616.67;1451249;89;20310;-83
2022/11/14 01:03:18;;;;;;;;;;;;;;;1.84;100.00;101616.64;1455299;89;20377;-83
2022/11/14 01:05:47;;;;;;;;;;;;;;;1.79;100.00;101613.77;1455866;89;20346;-84
2022/11/14 01:08:15;;;;;;;;;;;;;;;1.79;100.00;101609.86;1453001;89;20333;-82
2022/11/14 01:10:43;;;;;;;;;;;;;;;1.85;100.00;101610.53;1460757;89;20533;-83
2022/11/14 01:13:10;;;;;;;;;;;;;;;1.87;100.00;101608.68;1460771;88;21082;-83
2022/11/14 01:15:41;;;;;;;;;;;;;;;1.94;100.00;101607.53;1453600;89;20443;-84
2022/11/14 01:18:09;;;;;;;;;;;;;;;1.95;100.00;101602.23;1449059;89;20440;-83
2022/11/14 01:20:38;;;;;;;;;;;;;;;2.00;100.00;101605.97;1461509;89;20437;-82
2022/11/14 01:23:04;;;;;;;;;;;;;;;2.04;100.00;101597.08;1468361;89;20385;-83
2022/11/14 01:25:32;;;;;;;;;;;;;;;2.08;100.00;101596.06;1465185;89;20832;-84
2022/11/14 01:27:59;;;;;;;;;;;;;;;2.04;100.00;101599.69;1448037;89;20392;-83
2022/11/14 01:30:25;;;;;;;;;;;;;;;2.03;100.00;101590.17;1457527;89;20384;-82
2022/11/14 01:32:51;;;;;;;;;;;;;;;2.06;100.00;101579.59;1471883;88;20267;-83
2022/11/14 01:35:16;;;;;;;;;;;;;;;2.03;100.00;101581.03;1479394;88;20335;-84
2022/11/14 01:37:42;;;;;;;;;;;;;;;2.06;100.00;101583.52;1481844;88;20283;-83
2022/11/14 01:40:10;;;;;;;;;;;;;;;2.05;100.00;101573.99;1484709;88;20372;-83
2022/11/14 01:42:35;;;;;;;;;;;;;;;2.04;100.00;101572.27;1475172;88;20321;-82
2022/11/14 01:45:22;;;;;;;;;;;;;;;2.03;100.00;101568.81;1480359;88;20365;-83
2022/11/14 01:47:48;;;;;;;;;;;;;;;2.03;100.00;101566.67;1473707;88;20286;-84
2022/11/14 01:50:16;;;;;;;;;;;;;;;2.06;100.00;101559.16;1434737;90;20405;-86
2022/11/14 01:52:42;;;;;;;;;;;;;;;2.10;100.00;101556.80;1445164;90;20285;-83
2022/11/14 01:55:09;;;;;;;;;;;;;;;2.13;100.00;101558.85;1436480;90;20235;-83
2022/11/14 01:57:38;;;;;;;;;;;;;;;2.19;100.00;101565.11;1440739;90;20405;-84
2022/11/14 02:00:07;;;;;;;;;;;;;;;2.26;100.00;101563.91;1445455;90;20422;-86
2022/11/14 02:02:33;;;;;;;;;;;;;;;2.29;100.00;101559.48;1456408;89;20362;-83
2022/11/14 02:05:05;;;;;;;;;;;;;;;2.33;100.00;101555.80;1460181;88;20326;-82
2022/11/14 02:07:34;;;;;;;;;;;;;;;2.37;100.00;101558.69;1459828;89;20332;-86
2022/11/14 02:10:02;;;;;;;;;;;;;;;2.36;100.00;101561.77;1458471;89;20340;-84
2022/11/14 02:12:28;;;;;;;;;;;;;;;2.35;100.00;101563.13;1460147;89;20714;-84
2022/11/14 02:14:56;;;;;;;;;;;;;;;2.34;100.00;101554.45;1459861;89;20342;-85
2022/11/14 02:17:23;;;;;;;;;;;;;;;2.33;100.00;101559.73;1464823;89;20333;-87
2022/11/14 02:19:52;;;;;;;;;;;;;;;2.26;100.00;101552.16;1460611;89;20839;-85
2022/11/14 02:22:18;;;;;;;;;;;;;;;2.23;100.00;101553.60;1458997;89;20260;-82
2022/11/14 02:24:45;;;;;;;;;;;;;;;2.21;100.00;101550.20;1458457;89;20295;-82
2022/11/14 02:27:12;;;;;;;;;;;;;;;2.13;100.00;101551.02;1460901;89;20312;-83
2022/11/14 02:29:39;;;;;;;;;;;;;;;2.01;100.00;101546.30;1455475;89;20319;-85
2022/11/14 02:32:05;;;;;;;;;;;;;;;1.89;100.00;101542.91;1454489;89;20378;-83
2022/11/14 02:34:31;;;;;;;;;;;;;;;1.87;100.00;101540.38;1452154;89;20752;-83
2022/11/14 02:36:57;;;;;;;;;;;;;;;1.83;100.00;101528.81;1455904;89;20390;-83
2022/11/14 02:39:24;;;;;;;;;;;;;;;1.87;100.00;101523.84;1463926;89;20275;-83
2022/11/14 02:41:50;;;;;;;;;;;;;;;1.85;100.00;101521.77;1458299;89;20364;-83
2022/11/14 02:44:17;;;;;;;;;;;;;;;1.91;100.00;101526.73;1452531;89;20437;-84
2022/11/14 02:46:43;;;;;;;;;;;;;;;1.97;100.00;101529.91;1458490;89;20319;-84
2022/11/14 02:49:09;;;;;;;;;;;;;;;2.00;100.00;101532.86;1455530;88;20294;-85
2022/11/14 02:51:35;;;;;;;;;;;;;;;1.99;100.00;101534.63;1445035;90;20367;-84
2022/11/14 02:54:01;;;;;;;;;;;;;;;1.96;100.00;101537.83;1444887;90;20293;-84
2022/11/14 02:56:27;;;;;;;;;;;;;;;1.86;100.00;101536.51;1435774;90;20302;-83
2022/11/14 02:58:53;;;;;;;;;;;;;;;1.81;100.00;101535.38;1450941;90;20813;-83
2022/11/14 03:01:19;;;;;;;;;;;;;;;1.77;100.00;101536.44;1446704;90;20383;-83
2022/11/14 03:03:45;;;;;;;;;;;;;;;1.69;100.00;101541.97;1443198;89;20360;-84
2022/11/14 03:06:11;;;;;;;;;;;;;;;1.65;100.00;101536.49;1458477;89;20348;-83
2022/11/14 03:08:36;;;;;;;;;;;;;;;1.62;100.00;101522.73;1459718;89;20348;-83
2022/11/14 03:11:05;;;;;;;;;;;;;;;1.59;100.00;101528.92;1456020;89;20953;-83
2022/11/14 03:13:30;;;;;;;;;;;;;;;1.57;100.00;101525.05;1453842;89;20795;-82
2022/11/14 03:15:56;;;;;;;;;;;;;;;1.55;100.00;101534.73;1461988;89;20318;-83
2022/11/14 03:18:22;;;;;;;;;;;;;;;1.54;100.00;101537.39;1457211;89;20304;-84
2022/11/14 03:20:48;;;;;;;;;;;;;;;1.58;100.00;101535.91;1454048;89;20423;-83
2022/11/14 03:23:14;;;;;;;;;;;;;;;1.63;100.00;101533.09;1458145;89;20384;-83
2022/11/14 03:25:40;;;;;;;;;;;;;;;1.62;100.00;101539.69;1455691;89;20824;-84
2022/11/14 03:28:05;;;;;;;;;;;;;;;1.60;100.00;101535.83;1454931;88;20327;-82
2022/11/14 03:30:31;;;;;;;;;;;;;;;1.47;100.00;101531.58;1449192;89;20275;-83
2022/11/14 03:32:57;;;;;;;;;;;;;;;1.46;100.00;101531.16;1456220;89;20892;-83
2022/11/14 03:35:23;;;;;;;;;;;;;;;1.44;100.00;101536.05;1445229;89;20312;-84
2022/11/14 03:37:49;;;;;;;;;;;;;;;1.35;100.00;101532.92;1463886;89;20333;-82
2022/11/14 03:40:15;;;;;;;;;;;;;;;1.32;100.00;101538.27;1457113;89;20268;-84
2022/11/14 03:42:41;;;;;;;;;;;;;;;1.25;100.00;101534.65;1457105;89;20371;-81
2022/11/14 03:45:09;;;;;;;;;;;;;;;1.25;100.00;101530.73;1453542;89;20895;-84
2022/11/14 03:47:35;;;;;;;;;;;;;;;1.28;100.00;101524.09;1456040;89;20908;-85
2022/11/14 03:50:00;;;;;;;;;;;;;;;1.27;100.00;101528.47;1458675;89;20244;-84
2022/11/14 03:52:26;;;;;;;;;;;;;;;1.21;100.00;101531.32;1451901;89;20312;-83
2022/11/14 03:54:52;;;;;;;;;;;;;;;1.23;100.00;101532.09;1454528;89;20836;-83
2022/11/14 03:57:18;;;;;;;;;;;;;;;1.23;100.00;101532.09;1452767;89;20503;-83
2022/11/14 03:59:43;;;;;;;;;;;;;;;1.25;100.00;101530.27;1455357;89;20325;-83
2022/11/14 04:02:09;;;;;;;;;;;;;;;1.29;100.00;101526.62;1454039;88;20421;-81
2022/11/14 04:04:35;;;;;;;;;;;;;;;1.26;100.00;101528.51;1454308;89;20455;-83
2022/11/14 04:07:01;;;;;;;;;;;;;;;1.17;100.00;101526.27;1453649;89;20919;-83
2022/11/14 04:09:27;;;;;;;;;;;;;;;1.05;100.00;101527.61;1459546;89;20311;-82
2022/11/14 04:11:52;;;;;;;;;;;;;;;0.99;100.00;101526.08;1454526;89;20809;-83
2022/11/14 04:14:18;;;;;;;;;;;;;;;0.94;100.00;101515.44;1456853;89;20310;-83
2022/11/14 04:16:44;;;;;;;;;;;;;;;0.90;100.00;101522.08;1459306;89;20802;-82
2022/11/14 04:19:10;;;;;;;;;;;;;;;0.87;100.00;101524.80;1453904;89;20326;-80
2022/11/14 04:21:36;;;;;;;;;;;;;;;0.88;100.00;101517.37;1474248;88;20885;-82
2022/11/14 04:24:02;;;;;;;;;;;;;;;0.93;100.00;101508.53;1439683;90;20301;-81
2022/11/14 04:26:28;;;;;;;;;;;;;;;0.94;100.00;101508.92;1460666;90;20276;-82
2022/11/14 04:28:54;;;;;;;;;;;;;;;0.81;100.00;101513.31;1414960;91;20297;-85
2022/11/14 04:31:21;;;;;;;;;;;;;;;0.77;100.00;101518.69;1457029;89;20281;-88
2022/11/14 04:33:47;;;;;;;;;;;;;;;0.72;100.00;101512.36;1438407;91;20284;-86
2022/11/14 04:36:13;;;;;;;;;;;;;;;0.67;100.00;101506.47;1420730;91;21032;-85
2022/11/14 04:38:39;;;;;;;;;;;;;;;0.64;100.00;101517.01;1463655;89;20861;-86
2022/11/14 04:41:05;;;;;;;;;;;;;;;0.67;100.00;101516.89;1455539;89;20288;-85
2022/11/14 04:43:30;;;;;;;;;;;;;;;0.72;100.00;101511.06;1453827;89;20744;-84
2022/11/14 04:45:56;;;;;;;;;;;;;;;0.81;100.00;101503.34;1463297;89;20319;-85
2022/11/14 04:48:22;;;;;;;;;;;;;;;0.90;100.00;101505.59;1461089;89;20319;-86
2022/11/14 04:50:48;;;;;;;;;;;;;;;0.95;100.00;101506.70;1457714;89;20260;-83
2022/11/14 04:53:14;;;;;;;;;;;;;;;0.99;100.00;101505.69;1462429;89;20368;-85
2022/11/14 04:55:40;;;;;;;;;;;;;;;1.04;100.00;101499.84;1457077;89;20298;-85
2022/11/14 04:58:06;;;;;;;;;;;;;;;1.07;100.00;101493.20;1461919;89;20354;-85
2022/11/14 05:00:32;;;;;;;;;;;;;;;1.10;100.00;101508.73;1459956;89;20843;-85
2022/11/14 05:02:59;;;;;;;;;;;;;;;1.08;100.00;101509.23;1463097;89;20672;-85
2022/11/14 05:05:24;;;;;;;;;;;;;;;1.04;100.00;101503.75;1455084;88;20409;-86
2022/11/14 05:07:50;;;;;;;;;;;;;;;1.02;100.00;101506.87;1470442;88;20239;-88
2022/11/14 05:10:16;;;;;;;;;;;;;;;0.99;100.00;101504.38;1479400;88;20283;-87
2022/11/14 05:12:42;;;;;;;;;;;;;;;0.95;100.00;101505.39;1474298;88;20893;-87
2022/11/14 05:15:09;;;;;;;;;;;;;;;0.94;100.00;101506.31;1473901;88;20217;-88
2022/11/14 05:17:34;;;;;;;;;;;;;;;0.96;100.00;101504.50;1486007;88;20877;-86
2022/11/14 05:20:00;;;;;;;;;;;;;;;1.00;100.00;101503.00;1464469;88;20297;-88
2022/11/14 05:22:26;;;;;;;;;;;;;;;1.03;100.00;101514.61;1448079;89;20337;-86
2022/11/14 05:24:52;;;;;;;;;;;;;;;1.02;100.00;101511.63;1433152;89;21169;-88
2022/11/14 05:27:18;;;;;;;;;;;;;;;1.03;100.00;101501.58;1455318;89;20416;-86
2022/11/14 05:29:44;;;;;;;;;;;;;;;1.05;100.00;101503.68;1460089;89;20340;-86
2022/11/14 05:32:10;;;;;;;;;;;;;;;1.05;100.00;101504.14;1458059;89;20311;-87
2022/11/14 05:34:35;;;;;;;;;;;;;;;1.06;100.00;101508.44;1464922;89;20380;-88
2022/11/14 05:37:02;;;;;;;;;;;;;;;1.05;100.00;101495.86;1462842;89;20304;-88
2022/11/14 05:39:29;;;;;;;;;;;;;;;1.06;100.00;101498.00;1446098;89;20268;-88
2022/11/14 05:41:54;;;;;;;;;;;;;;;1.05;100.00;101506.29;1453231;89;20817;-86
2022/11/14 05:44:20;;;;;;;;;;;;;;;1.06;100.00;101507.13;1455089;89;20312;-89
2022/11/14 05:46:46;;;;;;;;;;;;;;;1.04;100.00;101510.27;1451356;89;20312;-86
2022/11/14 05:49:12;;;;;;;;;;;;;;;1.07;100.00;101508.84;1429016;90;20323;-88
2022/11/14 05:51:38;;;;;;;;;;;;;;;1.13;100.00;101509.91;1455173;89;20297;-88
2022/11/14 05:54:04;;;;;;;;;;;;;;;1.13;100.00;101507.30;1450994;88;20831;-87
2022/11/14 05:56:30;;;;;;;;;;;;;;;1.16;100.00;101504.56;1453810;89;20304;-86
2022/11/14 05:58:55;;;;;;;;;;;;;;;1.19;100.00;101508.36;1448127;89;20302;-86
2022/11/14 06:01:21;;;;;;;;;;;;;;;1.12;100.00;101508.19;1459323;89;20364;-87
2022/11/14 06:03:48;;;;;;;;;;;;;;;1.07;100.00;101512.30;1453978;88;20347;-85
2022/11/14 06:06:17;;;;;;;;;;;;;;;0.97;100.00;101519.23;1449198;89;20355;-85
2022/11/14 06:08:43;;;;;;;;;;;;;;;0.90;100.00;101524.68;1454026;88;20311;-85
2022/11/14 06:11:10;;;;;;;;;;;;;;;0.92;100.00;101523.77;1458209;88;20280;-85
2022/11/14 06:13:36;;;;;;;;;;;;;;;0.92;100.00;101519.39;1434528;90;20856;-86
2022/11/14 06:16:05;;;;;;;;;;;;;;;0.89;100.00;101516.48;1442264;89;20299;-85
2022/11/14 06:18:32;;;;;;;;;;;;;;;0.90;100.00;101522.08;1461837;88;20333;-86
2022/11/14 06:21:01;;;;;;;;;;;;;;;0.94;100.00;101525.86;1457361;89;20952;-87
2022/11/14 06:23:28;;;;;;;;;;;;;;;1.02;100.00;101518.60;1459722;89;20408;-85
2022/11/14 06:25:59;;;;;;;;;;;;;;;1.12;100.00;101519.92;1454953;89;20854;-87
2022/11/14 06:28:27;;;;;;;;;;;;;;;1.26;100.00;101515.01;1460214;89;20831;-86
2022/11/14 06:31:01;;;;;;;;;;;;;;;1.39;100.00;101517.15;1452650;89;20318;-84
2022/11/14 06:33:31;;;;;;;;;;;;;;;1.48;100.00;101512.86;1455146;89;20392;-85
2022/11/14 06:36:00;;;;;;;;;;;;;;;1.55;100.00;101516.89;1453287;89;20407;-85
2022/11/14 06:38:30;;;;;;;;;;;;;;;1.65;100.00;101512.16;1453456;89;20302;-87
2022/11/14 06:41:07;;;;;;;;;;;;;;;1.77;100.00;101515.09;1455337;89;20840;-85
2022/11/14 06:43:37;;;;;;;;;;;;;;;1.86;100.00;101505.18;1452750;89;20434;-85
2022/11/14 06:46:05;;;;;;;;;;;;;;;1.98;100.00;101510.71;1454466;89;20451;-90
2022/11/14 06:48:32;;;;;;;;;;;;;;;2.05;100.00;101507.86;1458376;89;20332;-89
2022/11/14 06:51:00;;;;;;;;;;;;;;;2.11;100.00;101513.66;1458967;89;20875;-90
2022/11/14 06:53:28;;;;;;;;;;;;;;;2.18;100.00;101504.63;1460098;89;20476;-90
2022/11/14 06:56:07;;;;;;;;;;;;;;;2.27;100.00;101504.67;1475736;88;20290;-86
2022/11/14 06:58:56;;;;;;;;;;;;;;;2.32;100.00;101511.02;1467565;89;20365;-84
2022/11/14 07:01:27;;;;;;;;;;;;;;;2.38;100.00;101511.58;1455374;89;20299;-89
2022/11/14 07:03:57;;;;;;;;;;;;;;;2.39;100.00;101511.15;1452797;90;20365;-88
2022/11/14 07:06:32;;;;;;;;;;;;;;;2.42;100.00;101512.31;1450029;89;20361;-87
2022/11/14 07:08:59;;;;;;;;;;;;;;;2.46;100.00;101518.63;1448658;90;20344;-88
2022/11/14 07:11:28;;;;;;;;;;;;;;;2.53;100.00;101511.34;1438904;90;20411;-88
2022/11/14 07:13:57;;;;;;;;;;;;;;;2.59;100.00;101504.56;1453311;90;20523;-88
2022/11/14 07:16:30;;;;;;;;;;;;;;;2.67;100.00;101501.11;1452793;89;20322;-88
2022/11/14 07:18:58;;;;;;;;;;;;;;;2.72;100.00;101512.67;1463390;90;20960;-87
2022/11/14 07:21:26;;;;;;;;;;;;;;;2.77;100.00;101511.16;1452394;90;20338;-89
2022/11/14 07:23:53;;;;;;;;;;;;;;;2.86;100.00;101519.88;1455407;90;20256;-89
2022/11/14 07:26:20;;;;;;;;;;;;;;;2.94;100.00;101515.15;1455924;90;20293;-89
2022/11/14 07:28:47;;;;;;;;;;;;;;;2.99;100.00;101511.83;1453351;90;20791;-89
2022/11/14 07:31:16;;;;;;;;;;;;;;;3.07;100.00;101512.33;1448176;90;20227;-87
2022/11/14 07:33:44;;;;;;;;;;;;;;;3.10;100.00;101514.79;1437733;90;20284;-88
2022/11/14 07:36:12;;;;;;;;;;;;;;;3.12;100.00;101514.27;1459080;90;20465;-88
2022/11/14 07:38:39;;;;;;;;;;;;;;;3.15;100.00;101511.50;1454520;90;20754;-89
2022/11/14 07:41:09;;;;;;;;;;;;;;;3.22;100.00;101511.20;1450328;90;20272;-89
2022/11/14 07:43:37;;;;;;;;;;;;;;;3.26;100.00;101507.07;1455884;89;20338;-89
2022/11/14 07:46:15;;;;;;;;;;;;;;;3.30;100.00;101509.07;1452914;90;20360;-88
2022/11/14 07:48:42;;;;;;;;;;;;;;;3.18;100.00;101509.67;1458030;90;20408;-88
2022/11/14 07:51:17;;;;;;;;;;;;;;;3.25;100.00;101507.13;1465405;90;20314;-88
2022/11/14 07:53:44;;;;;;;;;;;;;;;3.31;100.00;101510.32;1452141;90;20241;-89
2022/11/14 07:56:11;;;;;;;;;;;;;;;3.34;100.00;101508.02;1453419;90;20334;-88
2022/11/14 07:58:40;;;;;;;;;;;;;;;3.46;100.00;101513.95;1452410;90;20285;-88
2022/11/14 08:01:09;;;;;;;;;;;;;;;3.53;100.00;101508.78;1446189;90;20292;-87
2022/11/14 08:03:36;;;;;;;;;;;;;;;3.58;100.00;101497.63;1420608;89;20317;-87
2022/11/14 08:06:06;;;;;;;;;;;;;;;3.67;100.00;101502.03;1420366;92;20288;-88
2022/11/14 08:08:33;;;;;;;;;;;;;;;3.79;100.00;101511.87;1425615;92;20384;-88
2022/11/14 08:11:00;;;;;;;;;;;;;;;3.91;100.00;101503.38;1422614;92;20744;-89
2022/11/14 08:13:28;;;;;;;;;;;;;;;4.02;100.00;101495.83;1420870;92;20309;-87
2022/11/14 08:15:55;;;;;;;;;;;;;;;4.11;100.00;101498.90;1421599;89;20382;-83
2022/11/14 08:18:22;;;;;;;;;;;;;;;4.09;100.00;101513.41;1441884;89;20322;-87
2022/11/14 08:20:49;;;;;;;;;;;;;;;4.17;100.00;101522.16;1445072;89;20322;-87
2022/11/14 08:23:16;;;;;;;;;;;;;;;4.21;100.00;101515.85;1458027;89;20345;-86
2022/11/14 08:25:42;;;;;;;;;;;;;;;4.12;99.57;101511.94;1456160;89;20393;-88
2022/11/14 08:28:09;;;;;;;;;;;;;;;4.06;99.64;101509.64;1431244;91;20369;-86
2022/11/14 08:30:36;;;;;;;;;;;;;;;3.99;100.00;101513.02;1432440;92;20267;-82
2022/11/14 08:33:04;;;;;;;;;;;;;;;3.84;100.00;101505.95;1413590;93;20371;-86
2022/11/14 08:35:34;;;;;;;;;;;;;;;3.87;100.00;101507.09;1430758;92;20281;-82
2022/11/14 08:38:01;;;;;;;;;;;;;;;3.94;100.00;101504.56;1415243;93;21003;-82
2022/11/14 08:40:29;;;;;;;;;;;;;;;4.05;100.00;101500.91;1430067;92;20928;-81
2022/11/14 08:43:00;;;;;;;;;;;;;;;4.07;100.00;101499.06;1412297;93;20282;-81
2022/11/14 08:45:28;;;;;;;;;;;;;;;4.26;100.00;101502.89;1417604;92;20318;-84
2022/11/14 08:47:55;;;;;;;;;;;;;;;4.45;100.00;101500.12;1414007;93;20267;-84
2022/11/14 08:50:23;;;;;;;;;;;;;;;4.47;100.00;101493.03;1429519;91;20355;-85
2022/11/14 08:52:50;;;;;;;;;;;;;;;4.50;100.00;101502.04;1410635;91;20889;-85
2022/11/14 08:55:19;;;;;;;;;;;;;;;4.55;100.00;101498.34;1412084;91;20913;-84
2022/11/14 08:57:47;;;;;;;;;;;;;;;4.49;100.00;101495.12;1430000;91;20402;-88
2022/11/14 09:00:14;;;;;;;;;;;;;;;4.62;100.00;101491.82;1437853;91;20445;-91
2022/11/14 09:02:41;;;;;;;;;;;;;;;4.71;100.00;101488.70;1435846;91;20786;-92
2022/11/14 09:05:09;;;;;;;;;;;;;;;4.67;100.00;101496.36;1425686;91;20355;-86
2022/11/14 09:07:36;;;;;;;;;;;;;;;4.58;100.00;101499.48;1437939;91;20243;-85
2022/11/14 09:10:04;;;;;;;;;;;;;;;4.40;100.00;101492.99;1431751;91;20870;-83
2022/11/14 09:12:30;;;;;;;;;;;;;;;4.42;100.00;101490.27;1429039;91;20221;-84
2022/11/14 09:14:57;;;;;;;;;;;;;;;4.45;100.00;101481.77;1433521;91;20957;-86
2022/11/14 09:17:24;;;;;;;;;;;;;;;4.50;100.00;101478.45;1430641;91;20348;-90
2022/11/14 09:19:51;;;;;;;;;;;;;;;4.66;100.00;101480.22;1428253;91;20415;-89
2022/11/14 09:22:18;;;;;;;;;;;;;;;4.78;100.00;101478.73;1424013;91;20369;-89
2022/11/14 09:24:48;;;;;;;;;;;;;;;4.94;100.00;101483.02;1431150;91;20288;-89
2022/11/14 09:27:16;;;;;;;;;;;;;;;5.02;100.00;101476.04;1430670;91;20444;-88
2022/11/14 09:29:43;;;;;;;;;;;;;;;5.12;100.00;101477.23;1429361;91;20206;-89
2022/11/14 09:32:10;;;;;;;;;;;;;;;5.29;100.00;101472.30;1426683;91;20488;-89
2022/11/14 09:34:41;;;;;;;;;;;;;;;5.40;100.00;101462.03;1422545;91;20859;-89
2022/11/14 09:37:05;;;;;;;;;;;;;;;5.22;98.71;101469.66;1431309;90;20421;-87
2022/11/14 09:39:36;;;;;;;;;;;;;;;5.01;99.65;101463.02;1427864;91;21138;-88
2022/11/14 09:42:05;;;;;;;;;;;;;;;5.06;100.00;101459.66;1434898;91;20444;-87
2022/11/14 09:44:37;;;;;;;;;;;;;;;5.09;100.00;101460.34;1422349;91;20860;-88
2022/11/14 09:47:06;;;;;;;;;;;;;;;4.95;100.00;101456.34;1475942;91;20362;-88
2022/11/14 09:49:42;;;;;;;;;;;;;;;4.92;100.00;101461.30;1427070;91;20362;-84
2022/11/14 09:52:12;;;;;;;;;;;;;;;5.10;100.00;101458.56;1428762;91;20395;-88
2022/11/14 09:54:43;;;;;;;;;;;;;;;5.22;100.00;101460.48;1429160;91;20532;-88
2022/11/14 09:57:18;;;;;;;;;;;;;;;5.23;100.00;101449.03;1426668;91;20309;-88
2022/11/14 09:59:45;;;;;;;;;;;;;;;5.27;100.00;101448.41;1422765;91;20347;-88
2022/11/14 10:02:18;;;;;;;;;;;;;;;5.33;100.00;101446.27;1428376;91;20846;-87
2022/11/14 10:05:04;;;;;;;;;;;;;;;5.39;100.00;101449.85;1433583;91;20919;-89
2022/11/14 10:07:47;;;;;;;;;;;;;;;5.55;100.00;101446.31;1432860;91;20416;-88
2022/11/14 10:10:39;;;;;;;;;;;;;;;5.72;100.00;101442.70;1405685;91;20748;-88
2022/11/14 10:13:18;;;;;;;;;;;;;;;5.77;100.00;101445.42;1423225;91;20311;-85
2022/11/14 10:16:06;;;;;;;;;;;;;;;5.78;100.00;101438.38;1427172;91;20296;-88
2022/11/14 10:18:36;;;;;;;;;;;;;;;5.86;100.00;101441.40;1432244;91;20786;-86
2022/11/14 10:21:09;;;;;;;;;;;;;;;5.95;100.00;101445.28;1431503;91;20428;-85
2022/11/14 10:23:42;;;;;;;;;;;;;;;5.98;100.00;101435.42;1420247;91;20371;-87
2022/11/14 10:26:30;;;;;;;;;;;;;;;6.04;100.00;101428.95;1424295;90;20402;-85
2022/11/14 10:29:06;;;;;;;;;;;;;;;6.16;100.00;101425.59;1423129;91;20340;-87
2022/11/14 10:31:40;;;;;;;;;;;;;;;6.29;100.00;101422.56;1432346;91;20333;-87
2022/11/14 10:34:19;;;;;;;;;;;;;;;6.44;100.00;101419.44;1422171;91;20429;-87
2022/11/14 10:36:59;;;;;;;;;;;;;;;6.51;99.98;101418.59;1422903;91;20337;-88
2022/11/14 10:39:32;;;;;;;;;;;;;;;6.59;99.50;101414.15;1424235;91;20424;-88
2022/11/14 10:42:03;;;;;;;;;;;;;;;6.65;97.90;101404.58;1428899;91;20386;-88
2022/11/14 10:44:33;;;;;;;;;;;;;;;6.70;98.38;101409.91;1424153;91;20228;-87
2022/11/14 10:47:03;;;;;;;;;;;;;;;6.76;98.17;101408.20;1426094;91;20838;-85
2022/11/14 10:49:34;;;;;;;;;;;;;;;6.69;95.32;101402.11;1426235;91;20377;-85
2022/11/14 10:52:04;;;;;;;;;;;;;;;6.59;95.63;101399.23;1406800;91;20347;-86
2022/11/14 10:54:59;;;;;;;;;;;;;;;6.64;97.00;101391.87;1429305;91;20407;-87
2022/11/14 10:57:27;;;;;;;;;;;;;;;6.66;97.07;101387.84;1427927;91;20355;-87
2022/11/14 10:59:54;;;;;;;;;;;;;;;6.74;97.01;101382.93;1427607;91;20281;-86
2022/11/14 11:02:21;;;;;;;;;;;;;;;6.78;96.61;101386.56;1431079;90;20341;-87
2022/11/14 11:04:48;;;;;;;;;;;;;;;6.81;96.36;101384.20;1422007;91;20743;-87
2022/11/14 11:13:14;;;;;;;;;;;;;;;6.70;96.72;101377.03;1390184;94;20412;-87
2022/11/14 11:15:42;;;;;;;;;;;;;;;6.72;96.81;101367.23;1408461;91;20854;-87
2022/11/14 11:18:27;;;;;;;;;;;;;;;6.72;98.13;101367.23;1435856;91;20376;-87
2022/11/14 11:21:10;;;;;;;;;;;;;;;6.80;98.20;101364.11;1433959;90;20287;-86
2022/11/14 11:23:49;;;;;;;;;;;;;;;6.82;98.40;101356.97;1433388;90;20392;-88
2022/11/14 11:26:23;;;;;;;;;;;;;;;6.91;98.53;101355.52;1439879;90;20461;-89
2022/11/14 11:29:11;;;;;;;;;;;;;;;6.92;97.47;101358.51;1431524;90;20356;-88
2022/11/14 11:31:51;;;;;;;;;;;;;;;6.90;96.96;101365.66;1434714;90;20845;-85
2022/11/14 11:34:30;;;;;;;;;;;;;;;6.94;98.15;101361.89;1430774;91;20295;-88
2022/11/14 11:37:16;;;;;;;;;;;;;;;6.98;98.41;101352.84;1428934;91;20622;-89
2022/11/14 11:39:52;;;;;;;;;;;;;;;7.04;98.82;101353.73;1427941;91;20392;-87
2022/11/14 11:42:28;;;;;;;;;;;;;;;7.14;97.80;101345.61;1437928;91;20373;-86
2022/11/14 11:44:59;;;;;;;;;;;;;;;7.18;97.97;101348.39;1436803;91;20402;-88
2022/11/14 11:47:27;;;;;;;;;;;;;;;7.15;96.67;101348.60;1432591;90;20926;-88
2022/11/14 11:49:55;;;;;;;;;;;;;;;7.18;96.27;101344.92;1440280;90;20809;-89
2022/11/14 11:53:01;;;;;;;;;;;;;;;6.92;97.29;101341.41;1437417;90;20275;-89
2022/11/14 11:55:34;;;;;;;;;;;;;;;6.99;97.56;101345.30;1443782;91;20391;-84
2022/11/14 11:58:05;;;;;;;;;;;;;;;7.09;98.63;101342.44;1435864;90;20392;-87
2022/11/14 12:00:32;;;;;;;;;;;;;;;7.22;99.05;101337.17;1436075;91;20970;-88
2022/11/14 12:03:00;;;;;;;;;;;;;;;7.19;97.05;101334.30;1422745;92;20943;-88
2022/11/14 12:05:33;;;;;;;;;;;;;;;7.12;96.12;101330.38;1399588;94;20306;-88
2022/11/14 12:08:20;;;;;;;;;;;;;;;7.26;97.35;101325.98;1434875;91;20288;-84
2022/11/14 12:10:47;;;;;;;;;;;;;;;7.35;96.83;101325.35;1411648;92;20282;-88
2022/11/14 12:13:24;;;;;;;;;;;;;;;7.37;96.52;101324.30;1404905;94;20306;-86
2022/11/14 12:15:58;;;;;;;;;;;;;;;7.35;95.68;101316.14;1419517;92;20289;-87
2022/11/14 12:18:46;;;;;;;;;;;;;;;7.31;95.69;101318.59;1417091;92;20334;-85
2022/11/14 12:21:32;;;;;;;;;;;;;;;7.28;95.89;101314.41;1420943;92;20426;-88
2022/11/14 12:24:29;;;;;;;;;;;;;;;7.42;97.48;101306.41;1432501;92;20793;-86
2022/11/14 12:27:12;;;;;;;;;;;;;;;7.53;97.64;101300.84;1420169;92;20334;-85
2022/11/14 12:29:49;;;;;;;;;;;;;;;7.58;96.21;101307.48;1399793;94;20404;-84
2022/11/14 12:32:19;;;;;;;;;;;;;;;7.72;96.86;101303.89;1415645;92;20238;-85
2022/11/14 12:34:47;;;;;;;;;;;;;;;7.86;96.63;101300.29;1425882;91;20311;-85
2022/11/14 12:37:17;;;;;;;;;;;;;;;7.80;93.40;101294.14;1423699;92;20840;-83
2022/11/14 12:39:59;;;;;;;;;;;;;;;7.82;94.08;101292.22;1393249;94;20270;-86
2022/11/14 12:42:26;;;;;;;;;;;;;;;7.75;93.79;101294.45;1416332;92;20416;-84
2022/11/14 12:44:53;;;;;;;;;;;;;;;7.65;93.50;101289.00;1405934;92;20282;-84
2022/11/14 12:47:24;;;;;;;;;;;;;;;7.60;93.79;101285.84;1423280;92;20398;-84
2022/11/14 12:49:57;;;;;;;;;;;;;;;7.58;93.83;101286.41;1424114;92;20431;-85
2022/11/14 12:52:45;;;;;;;;;;;;;;;7.66;94.96;101280.13;1423603;91;20310;-85